Staten Island, NY

1:16 AM EDT on April 26, 2017 (GMT -0400)
West Brighton | | Change Station

Elev 154 ft 40.63 °N, 74.11 °W | Updated 4 seconds ago

Overcast
Overcast
57.0 °F
Feels Like 57.0 °F
N
8.1
Wind Variable Wind from NE
Gusts 9.8 mph

Today
High -- | Low -- °F
--% Chance of Precip.
Yesterday
High -- | Low -- °F
Precip. -- in
Pressure 29.80 in
Visibility 4.0 miles
Clouds Overcast 300 ft
Dew Point 57 °F
Humidity 99%
Rainfall 0.00 in
Snow Depth Not available.
6:01 AM 7:47 PM
Waning Crescent, 0% visible
METAR KEWR 260451Z 03013KT 4SM -RA BR OVC003 12/12 A2980 RMK AO2 SLP089 P0001 T01170117 401330106 $
Pressure 29.80 in
Visibility 4.0 miles
Clouds Overcast 300 ft
Dew Point 57 °F
Humidity 99%
Rainfall 0.00 in
Snow Depth Not available.
6:01 AM 7:47 PM
Waning Crescent, 0% visible
METAR KEWR 260451Z 03013KT 4SM -RA BR OVC003 12/12 A2980 RMK AO2 SLP089 P0001 T01170117 401330106 $

Get Severe Weather Alerts

Thanks for signing up!

Be on the lookout for a verification email in your inbox.

You'll start receiving the daily forecast at 8 AM.

×

10-Day Weather Forecast

Almanac

Astronomy

Apr. 26, 2017 Rise Set
Actual Time
Civil Twilight
Nautical Twilight
Astronomical Twilight
Moon
Length of Visible Light
Length of Day
Tomorrow will be .
, % of the Moon is Illuminated

Today's Extremes

State Highs State Lows

Community

WunderPhotos

WunderBlog® & News

Nearby

Air Quality

  Air Quality AQ Index Pollutant
Not available.

Snow Depth

Station Depth Elevation

Earthquake Activity

City Distance Mag. Time & Date
Minimum magnitude displayed is 2.5.

Coastal Water Temperatures

Place Temperature

Stations

Nearby Weather Stations

Station Location Temp. Windchill Dew Point Humidity Wind Precip. Elev Updated Type
                   

Watches & Warnings

There are currently no watches in effect.